Terminal Aerodrome Forecast
Issued by NWS

Home | Current Version | Previous Version | Text Only | Print | Product List | Glossary On
Versions: 1 2 3 4 5 6 7 8 9 10 11 12
000
FTUS46 KMTR 102320
TAFOAK
TAF
KOAK 102320Z 1100/1206 25006KT P6SM FEW200
     FM110200 08004KT P6SM FEW200
     FM111800 VRB04KT P6SM SKC
     FM112100 25006KT P6SM SKC=

USA.gov is the U.S. government's official web portal to all federal, state and local government web resources and services.